sensor_id;sensor_type;location;lat;lon;timestamp;pressure;altitude;pressure_sealevel;temperature;humidity
58843;BME280;44614;54.356;10.100;2022-12-18T00:01:44;102617.47;;;-5.88;100.00
58843;BME280;44614;54.356;10.100;2022-12-18T00:04:21;102629.03;;;-5.87;100.00
58843;BME280;44614;54.356;10.100;2022-12-18T00:06:47;102624.59;;;-5.88;100.00
58843;BME280;44614;54.356;10.100;2022-12-18T00:09:12;102620.16;;;-5.88;100.00
58843;BME280;44614;54.356;10.100;2022-12-18T00:11:38;102634.44;;;-5.89;100.00
58843;BME280;44614;54.356;10.100;2022-12-18T00:14:03;102629.97;;;-5.88;100.00
58843;BME280;44614;54.356;10.100;2022-12-18T00:16:29;102590.53;;;-6.02;100.00
58843;BME280;44614;54.356;10.100;2022-12-18T00:19:00;102605.41;;;-5.96;100.00
58843;BME280;44614;54.356;10.100;2022-12-18T00:21:29;102604.41;;;-5.94;100.00
58843;BME280;44614;54.356;10.100;2022-12-18T00:23:55;102603.47;;;-5.93;100.00
58843;BME280;44614;54.356;10.100;2022-12-18T00:26:31;102619.59;;;-5.94;100.00
58843;BME280;44614;54.356;10.100;2022-12-18T00:29:03;102620.38;;;-5.92;100.00
58843;BME280;44614;54.356;10.100;2022-12-18T00:31:28;102614.06;;;-5.91;100.00
58843;BME280;44614;54.356;10.100;2022-12-18T00:33:55;102609.66;;;-5.92;100.00
58843;BME280;44614;54.356;10.100;2022-12-18T00:36:24;102615.03;;;-5.92;100.00
58843;BME280;44614;54.356;10.100;2022-12-18T00:38:50;102591.91;;;-6.12;100.00
58843;BME280;44614;54.356;10.100;2022-12-18T00:41:17;102618.66;;;-5.93;100.00
58843;BME280;44614;54.356;10.100;2022-12-18T00:44:03;102611.63;;;-5.96;100.00
58843;BME280;44614;54.356;10.100;2022-12-18T00:46:29;102626.75;;;-5.95;100.00
58843;BME280;44614;54.356;10.100;2022-12-18T00:48:55;102619.59;;;-5.94;100.00
58843;BME280;44614;54.356;10.100;2022-12-18T00:51:20;102619.50;;;-5.93;100.00
58843;BME280;44614;54.356;10.100;2022-12-18T00:53:45;102612.72;;;-6.00;100.00
58843;BME280;44614;54.356;10.100;2022-12-18T00:56:11;102536.84;;;-6.35;100.00
58843;BME280;44614;54.356;10.100;2022-12-18T00:58:36;102601.81;;;-5.95;100.00
58843;BME280;44614;54.356;10.100;2022-12-18T01:01:04;102610.72;;;-5.95;100.00
58843;BME280;44614;54.356;10.100;2022-12-18T01:03:29;102611.00;;;-6.01;100.00
58843;BME280;44614;54.356;10.100;2022-12-18T01:05:54;102622.31;;;-5.96;100.00
58843;BME280;44614;54.356;10.100;2022-12-18T01:08:19;102628.56;;;-5.95;100.00
58843;BME280;44614;54.356;10.100;2022-12-18T01:10:45;102639.28;;;-5.95;100.00
58843;BME280;44614;54.356;10.100;2022-12-18T01:13:10;102629.56;;;-5.98;100.00
58843;BME280;44614;54.356;10.100;2022-12-18T01:15:35;102630.44;;;-5.97;100.00
58843;BME280;44614;54.356;10.100;2022-12-18T01:18:01;102620.00;;;-6.03;100.00
58843;BME280;44614;54.356;10.100;2022-12-18T01:20:26;102629.63;;;-5.99;100.00
58843;BME280;44614;54.356;10.100;2022-12-18T01:22:51;102624.28;;;-5.99;100.00
58843;BME280;44614;54.356;10.100;2022-12-18T01:25:17;102633.25;;;-6.00;100.00
58843;BME280;44614;54.356;10.100;2022-12-18T01:27:42;102635.94;;;-6.00;100.00
58843;BME280;44614;54.356;10.100;2022-12-18T01:30:08;102629.00;;;-6.04;100.00
58843;BME280;44614;54.356;10.100;2022-12-18T01:32:33;102637.75;;;-6.01;100.00
58843;BME280;44614;54.356;10.100;2022-12-18T01:34:59;102634.19;;;-6.01;100.00
58843;BME280;44614;54.356;10.100;2022-12-18T01:37:24;102617.28;;;-6.21;100.00
58843;BME280;44614;54.356;10.100;2022-12-18T01:39:49;102647.63;;;-6.03;100.00
58843;BME280;44614;54.356;10.100;2022-12-18T01:42:16;102624.50;;;-6.23;100.00
58843;BME280;44614;54.356;10.100;2022-12-18T01:49:47;102660.22;;;-6.05;100.00
58843;BME280;44614;54.356;10.100;2022-12-18T01:52:15;102657.31;;;-6.00;100.00
58843;BME280;44614;54.356;10.100;2022-12-18T01:54:42;102667.16;;;-6.01;100.00
58843;BME280;44614;54.356;10.100;2022-12-18T01:57:07;102646.75;;;-6.03;100.00
58843;BME280;44614;54.356;10.100;2022-12-18T01:59:33;102636.78;;;-6.00;100.00
58843;BME280;44614;54.356;10.100;2022-12-18T02:02:00;102647.63;;;-6.03;100.00
58843;BME280;44614;54.356;10.100;2022-12-18T02:04:27;102654.78;;;-6.03;100.00
58843;BME280;44614;54.356;10.100;2022-12-18T02:07:32;102636.88;;;-6.20;100.00
58843;BME280;44614;54.356;10.100;2022-12-18T02:16:04;102656.69;;;-6.05;100.00
58843;BME280;44614;54.356;10.100;2022-12-18T02:18:45;102660.31;;;-6.06;100.00
58843;BME280;44614;54.356;10.100;2022-12-18T02:21:27;102653.16;;;-6.06;100.00
58843;BME280;44614;54.356;10.100;2022-12-18T02:24:35;102643.72;;;-6.15;100.00
58843;BME280;44614;54.356;10.100;2022-12-18T02:27:09;102655.16;;;-6.11;100.00
58843;BME280;44614;54.356;10.100;2022-12-18T02:29:46;102663.13;;;-6.09;100.00
58843;BME280;44614;54.356;10.100;2022-12-18T02:32:17;102667.53;;;-6.08;100.00
58843;BME280;44614;54.356;10.100;2022-12-18T02:34:46;102672.00;;;-6.09;100.00
58843;BME280;44614;54.356;10.100;2022-12-18T02:37:14;102668.34;;;-6.06;100.00
58843;BME280;44614;54.356;10.100;2022-12-18T02:39:43;102668.34;;;-6.06;100.00
58843;BME280;44614;54.356;10.100;2022-12-18T02:42:10;102670.91;;;-6.05;100.00
58843;BME280;44614;54.356;10.100;2022-12-18T02:44:47;102674.59;;;-6.07;100.00
58843;BME280;44614;54.356;10.100;2022-12-18T02:47:15;102666.56;;;-6.07;100.00
58843;BME280;44614;54.356;10.100;2022-12-18T03:00:39;102662.44;;;-6.15;100.00
58843;BME280;44614;54.356;10.100;2022-12-18T03:08:50;102677.41;;;-6.10;100.00
58843;BME280;44614;54.356;10.100;2022-12-18T03:11:17;102662.31;;;-6.11;100.00
58843;BME280;44614;54.356;10.100;2022-12-18T03:14:03;102650.09;;;-6.17;100.00
58843;BME280;44614;54.356;10.100;2022-12-18T03:16:33;102664.03;;;-6.10;100.00
58843;BME280;44614;54.356;10.100;2022-12-18T03:19:12;102664.03;;;-6.10;100.00
58843;BME280;44614;54.356;10.100;2022-12-18T03:21:46;102668.59;;;-6.13;100.00
58843;BME280;44614;54.356;10.100;2022-12-18T03:24:14;102662.88;;;-6.24;100.00
58843;BME280;44614;54.356;10.100;2022-12-18T03:26:43;102680.25;;;-6.14;100.00
58843;BME280;44614;54.356;10.100;2022-12-18T03:29:16;102657.66;;;-6.27;100.00
58843;BME280;44614;54.356;10.100;2022-12-18T03:31:47;102558.66;;;-6.83;100.00
58843;BME280;44614;54.356;10.100;2022-12-18T03:34:19;102646.44;;;-6.35;100.00
58843;BME280;44614;54.356;10.100;2022-12-18T03:36:47;102677.06;;;-6.22;100.00
58843;BME280;44614;54.356;10.100;2022-12-18T03:39:13;102677.63;;;-6.15;100.00
58843;BME280;44614;54.356;10.100;2022-12-18T03:41:51;102638.50;;;-6.36;100.00
58843;BME280;44614;54.356;10.100;2022-12-18T03:46:58;102672.34;;;-6.17;100.00
58843;BME280;44614;54.356;10.100;2022-12-18T03:49:48;102667.13;;;-6.20;100.00
58843;BME280;44614;54.356;10.100;2022-12-18T03:52:30;102663.69;;;-6.22;100.00
58843;BME280;44614;54.356;10.100;2022-12-18T03:55:00;102662.00;;;-6.24;100.00
58843;BME280;44614;54.356;10.100;2022-12-18T03:57:28;102662.78;;;-6.22;100.00
58843;BME280;44614;54.356;10.100;2022-12-18T03:59:57;102660.06;;;-6.21;100.00
58843;BME280;44614;54.356;10.100;2022-12-18T04:02:25;102653.84;;;-6.21;100.00
58843;BME280;44614;54.356;10.100;2022-12-18T04:04:52;102651.22;;;-6.23;100.00
58843;BME280;44614;54.356;10.100;2022-12-18T04:07:19;102594.53;;;-6.50;100.00
58843;BME280;44614;54.356;10.100;2022-12-18T04:09:45;102636.22;;;-6.25;100.00
58843;BME280;44614;54.356;10.100;2022-12-18T04:12:11;102646.00;;;-6.26;100.00
58843;BME280;44614;54.356;10.100;2022-12-18T04:14:36;102649.63;;;-6.27;100.00
58843;BME280;44614;54.356;10.100;2022-12-18T04:17:02;102626.88;;;-6.35;100.00
58843;BME280;44614;54.356;10.100;2022-12-18T04:19:28;102649.63;;;-6.27;100.00
58843;BME280;44614;54.356;10.100;2022-12-18T04:21:53;102646.19;;;-6.29;100.00
58843;BME280;44614;54.356;10.100;2022-12-18T04:24:19;102669.03;;;-6.22;100.00
58843;BME280;44614;54.356;10.100;2022-12-18T04:26:44;102669.91;;;-6.21;100.00
58843;BME280;44614;54.356;10.100;2022-12-18T04:29:10;102679.72;;;-6.22;100.00
58843;BME280;44614;54.356;10.100;2022-12-18T04:31:35;102691.28;;;-6.21;100.00
58843;BME280;44614;54.356;10.100;2022-12-18T04:34:01;102694.84;;;-6.21;100.00
58843;BME280;44614;54.356;10.100;2022-12-18T04:36:26;102686.06;;;-6.24;100.00
58843;BME280;44614;54.356;10.100;2022-12-18T04:38:52;102695.63;;;-6.19;100.00
58843;BME280;44614;54.356;10.100;2022-12-18T04:41:17;102687.75;;;-6.22;100.00
58843;BME280;44614;54.356;10.100;2022-12-18T04:43:43;102702.72;;;-6.18;100.00
58843;BME280;44614;54.356;10.100;2022-12-18T04:46:08;102698.25;;;-6.17;100.00
58843;BME280;44614;54.356;10.100;2022-12-18T04:48:35;102705.41;;;-6.18;100.00
58843;BME280;44614;54.356;10.100;2022-12-18T04:51:00;102702.84;;;-6.21;100.00
58843;BME280;44614;54.356;10.100;2022-12-18T04:53:25;102683.75;;;-6.32;100.00
58843;BME280;44614;54.356;10.100;2022-12-18T04:56:11;102706.38;;;-6.20;100.00
58843;BME280;44614;54.356;10.100;2022-12-18T04:58:38;102695.09;;;-6.27;100.00
58843;BME280;44614;54.356;10.100;2022-12-18T05:01:04;102709.19;;;-6.23;100.00
58843;BME280;44614;54.356;10.100;2022-12-18T05:03:30;102700.41;;;-6.25;100.00
58843;BME280;44614;54.356;10.100;2022-12-18T05:05:56;102703.94;;;-6.25;100.00
58843;BME280;44614;54.356;10.100;2022-12-18T05:08:21;102670.78;;;-6.41;100.00
58843;BME280;44614;54.356;10.100;2022-12-18T05:10:46;102705.56;;;-6.22;100.00
58843;BME280;44614;54.356;10.100;2022-12-18T05:13:12;102703.06;;;-6.25;100.00
58843;BME280;44614;54.356;10.100;2022-12-18T05:15:37;102714.63;;;-6.25;100.00
58843;BME280;44614;54.356;10.100;2022-12-18T05:18:03;102717.44;;;-6.28;100.00
58843;BME280;44614;54.356;10.100;2022-12-18T05:20:28;102721.91;;;-6.28;100.00
58843;BME280;44614;54.356;10.100;2022-12-18T05:22:54;102725.59;;;-6.31;100.00
58843;BME280;44614;54.356;10.100;2022-12-18T05:25:23;102718.56;;;-6.33;100.00
58843;BME280;44614;54.356;10.100;2022-12-18T05:27:49;102717.69;;;-6.34;100.00
58843;BME280;44614;54.356;10.100;2022-12-18T05:30:15;102721.22;;;-6.33;100.00
58843;BME280;44614;54.356;10.100;2022-12-18T05:32:41;102719.59;;;-6.36;100.00
58843;BME280;44614;54.356;10.100;2022-12-18T05:35:08;102709.00;;;-6.39;100.00
58843;BME280;44614;54.356;10.100;2022-12-18T05:37:35;102718.63;;;-6.35;100.00
58843;BME280;44614;54.356;10.100;2022-12-18T05:40:01;102692.59;;;-6.50;100.00
58843;BME280;44614;54.356;10.100;2022-12-18T05:42:26;102680.41;;;-6.57;100.00
58843;BME280;44614;54.356;10.100;2022-12-18T05:44:51;102728.56;;;-6.37;100.00
58843;BME280;44614;54.356;10.100;2022-12-18T05:47:17;102723.25;;;-6.39;100.00
58843;BME280;44614;54.356;10.100;2022-12-18T05:49:42;102728.69;;;-6.40;100.00
58843;BME280;44614;54.356;10.100;2022-12-18T05:52:08;102727.94;;;-6.44;100.00
58843;BME280;44614;54.356;10.100;2022-12-18T05:54:34;102732.56;;;-6.47;100.00
58843;BME280;44614;54.356;10.100;2022-12-18T05:56:59;102730.94;;;-6.51;100.00
58843;BME280;44614;54.356;10.100;2022-12-18T05:59:24;102731.88;;;-6.52;100.00
58843;BME280;44614;54.356;10.100;2022-12-18T06:01:50;102738.16;;;-6.53;100.00
58843;BME280;44614;54.356;10.100;2022-12-18T06:04:15;102740.78;;;-6.52;100.00
58843;BME280;44614;54.356;10.100;2022-12-18T06:06:40;102736.34;;;-6.53;100.00
58843;BME280;44614;54.356;10.100;2022-12-18T06:09:06;102744.22;;;-6.50;100.00
58843;BME280;44614;54.356;10.100;2022-12-18T06:11:33;102745.25;;;-6.52;100.00
58843;BME280;44614;54.356;10.100;2022-12-18T06:13:59;102748.72;;;-6.50;100.00
58843;BME280;44614;54.356;10.100;2022-12-18T06:16:25;102751.50;;;-6.53;100.00
58843;BME280;44614;54.356;10.100;2022-12-18T06:18:51;102754.13;;;-6.52;100.00
58843;BME280;44614;54.356;10.100;2022-12-18T06:21:16;102733.88;;;-6.57;100.00
58843;BME280;44614;54.356;10.100;2022-12-18T06:23:41;102736.50;;;-6.56;100.00
58843;BME280;44614;54.356;10.100;2022-12-18T06:26:08;102746.16;;;-6.53;100.00
58843;BME280;44614;54.356;10.100;2022-12-18T06:28:34;102747.84;;;-6.51;100.00
58843;BME280;44614;54.356;10.100;2022-12-18T06:31:00;102743.44;;;-6.52;100.00
58843;BME280;44614;54.356;10.100;2022-12-18T06:33:26;102734.69;;;-6.55;100.00
58843;BME280;44614;54.356;10.100;2022-12-18T06:35:53;102738.22;;;-6.55;100.00
58843;BME280;44614;54.356;10.100;2022-12-18T06:38:18;102742.75;;;-6.57;100.00
58843;BME280;44614;54.356;10.100;2022-12-18T06:40:44;102750.78;;;-6.57;100.00
58843;BME280;44614;54.356;10.100;2022-12-18T06:43:09;102756.19;;;-6.58;100.00
58843;BME280;44614;54.356;10.100;2022-12-18T06:45:34;102761.53;;;-6.58;100.00
58843;BME280;44614;54.356;10.100;2022-12-18T06:48:00;102769.47;;;-6.57;100.00
58843;BME280;44614;54.356;10.100;2022-12-18T06:50:25;102761.53;;;-6.58;100.00
58843;BME280;44614;54.356;10.100;2022-12-18T06:52:50;102759.06;;;-6.63;100.00
58843;BME280;44614;54.356;10.100;2022-12-18T06:55:15;102761.94;;;-6.68;100.00
58843;BME280;44614;54.356;10.100;2022-12-18T06:57:41;102764.53;;;-6.66;100.00
58843;BME280;44614;54.356;10.100;2022-12-18T07:00:07;102771.63;;;-6.65;100.00
58843;BME280;44614;54.356;10.100;2022-12-18T07:02:32;102770.88;;;-6.69;100.00
58843;BME280;44614;54.356;10.100;2022-12-18T07:04:58;102742.41;;;-6.90;100.00
58843;BME280;44614;54.356;10.100;2022-12-18T07:07:23;102756.22;;;-6.80;100.00
58843;BME280;44614;54.356;10.100;2022-12-18T07:09:50;102778.88;;;-6.69;100.00
58843;BME280;44614;54.356;10.100;2022-12-18T07:12:15;102783.44;;;-6.71;100.00
58843;BME280;44614;54.356;10.100;2022-12-18T07:14:40;102787.84;;;-6.70;100.00
58843;BME280;44614;54.356;10.100;2022-12-18T07:17:09;102784.50;;;-6.75;100.00
58843;BME280;44614;54.356;10.100;2022-12-18T07:19:34;102800.47;;;-6.73;100.00
58843;BME280;44614;54.356;10.100;2022-12-18T07:21:59;102800.53;;;-6.75;100.00
58843;BME280;44614;54.356;10.100;2022-12-18T07:24:25;102810.34;;;-6.75;100.00
58843;BME280;44614;54.356;10.100;2022-12-18T07:26:50;102802.50;;;-6.80;100.00
58843;BME280;44614;54.356;10.100;2022-12-18T07:29:16;102811.34;;;-6.78;100.00
58843;BME280;44614;54.356;10.100;2022-12-18T07:31:41;102806.44;;;-6.89;100.00
58843;BME280;44614;54.356;10.100;2022-12-18T07:34:10;102819.56;;;-6.82;100.00
58843;BME280;44614;54.356;10.100;2022-12-18T07:36:36;102813.28;;;-6.81;100.00
58843;BME280;44614;54.356;10.100;2022-12-18T07:39:01;102826.44;;;-6.77;100.00
58843;BME280;44614;54.356;10.100;2022-12-18T07:41:26;102830.06;;;-6.78;100.00
58843;BME280;44614;54.356;10.100;2022-12-18T07:43:52;102835.41;;;-6.78;100.00
58843;BME280;44614;54.356;10.100;2022-12-18T07:46:18;102838.09;;;-6.79;100.00
58843;BME280;44614;54.356;10.100;2022-12-18T07:48:44;102841.78;;;-6.82;100.00
58843;BME280;44614;54.356;10.100;2022-12-18T07:51:12;102835.50;;;-6.81;100.00
58843;BME280;44614;54.356;10.100;2022-12-18T07:53:38;102839.06;;;-6.80;100.00
58843;BME280;44614;54.356;10.100;2022-12-18T07:56:06;102842.59;;;-6.80;100.00
58843;BME280;44614;54.356;10.100;2022-12-18T07:58:32;102841.69;;;-6.79;100.00
58843;BME280;44614;54.356;10.100;2022-12-18T08:01:08;102839.91;;;-6.80;100.00
58843;BME280;44614;54.356;10.100;2022-12-18T08:03:34;102843.59;;;-6.82;100.00
58843;BME280;44614;54.356;10.100;2022-12-18T08:06:01;102811.47;;;-7.03;100.00
58843;BME280;44614;54.356;10.100;2022-12-18T08:08:27;102844.34;;;-6.79;100.00
58843;BME280;44614;54.356;10.100;2022-12-18T08:10:53;102837.25;;;-6.80;99.86
58843;BME280;44614;54.356;10.100;2022-12-18T08:13:18;102812.28;;;-7.01;99.79
58843;BME280;44614;54.356;10.100;2022-12-18T08:15:44;102840.03;;;-6.83;99.71
58843;BME280;44614;54.356;10.100;2022-12-18T08:18:09;102837.44;;;-6.84;99.68
58843;BME280;44614;54.356;10.100;2022-12-18T08:20:34;102837.50;;;-6.86;99.78
58843;BME280;44614;54.356;10.100;2022-12-18T08:23:00;102825.81;;;-6.83;100.00
58843;BME280;44614;54.356;10.100;2022-12-18T08:25:25;102829.44;;;-6.84;100.00
58843;BME280;44614;54.356;10.100;2022-12-18T08:27:50;102791.91;;;-7.03;100.00
58843;BME280;44614;54.356;10.100;2022-12-18T08:30:16;102828.31;;;-6.79;99.91
58843;BME280;44614;54.356;10.100;2022-12-18T08:32:41;102822.06;;;-6.79;100.00
58843;BME280;44614;54.356;10.100;2022-12-18T08:35:07;102825.69;;;-6.80;100.00
58843;BME280;44614;54.356;10.100;2022-12-18T08:37:33;102831.09;;;-6.82;99.55
58843;BME280;44614;54.356;10.100;2022-12-18T08:39:59;102825.78;;;-6.82;100.00
58843;BME280;44614;54.356;10.100;2022-12-18T08:42:24;102824.91;;;-6.82;99.63
58843;BME280;44614;54.356;10.100;2022-12-18T08:45:08;102822.06;;;-6.79;100.00
58843;BME280;44614;54.356;10.100;2022-12-18T08:47:34;102813.41;;;-6.84;100.00
58843;BME280;44614;54.356;10.100;2022-12-18T08:49:59;102820.16;;;-6.76;100.00
58843;BME280;44614;54.356;10.100;2022-12-18T08:52:25;102823.69;;;-6.75;100.00
58843;BME280;44614;54.356;10.100;2022-12-18T08:54:50;102811.53;;;-6.82;99.82
58843;BME280;44614;54.356;10.100;2022-12-18T08:57:16;102827.94;;;-6.70;100.00
58843;BME280;44614;54.356;10.100;2022-12-18T08:59:41;102820.13;;;-6.74;100.00
58843;BME280;44614;54.356;10.100;2022-12-18T09:02:09;102831.53;;;-6.71;99.70
58843;BME280;44614;54.356;10.100;2022-12-18T09:04:35;102836.78;;;-6.68;99.77
58843;BME280;44614;54.356;10.100;2022-12-18T09:07:00;102826.00;;;-6.66;100.00
58843;BME280;44614;54.356;10.100;2022-12-18T09:09:26;102832.13;;;-6.64;99.94
58843;BME280;44614;54.356;10.100;2022-12-18T09:11:51;102834.75;;;-6.63;99.74
58843;BME280;44614;54.356;10.100;2022-12-18T09:14:16;102840.16;;;-6.64;100.00
58843;BME280;44614;54.356;10.100;2022-12-18T09:16:42;102837.31;;;-6.59;100.00
58843;BME280;44614;54.356;10.100;2022-12-18T09:19:09;102838.97;;;-6.57;100.00
58843;BME280;44614;54.356;10.100;2022-12-18T09:21:37;102834.50;;;-6.56;100.00
58843;BME280;44614;54.356;10.100;2022-12-18T09:24:05;102838.97;;;-6.57;99.65
58843;BME280;44614;54.356;10.100;2022-12-18T09:26:30;102839.84;;;-6.56;100.00
58843;BME280;44614;54.356;10.100;2022-12-18T09:28:56;102846.00;;;-6.54;100.00
58843;BME280;44614;54.356;10.100;2022-12-18T09:31:22;102843.34;;;-6.54;100.00
58843;BME280;44614;54.356;10.100;2022-12-18T09:33:48;102846.94;;;-6.55;99.91
58843;BME280;44614;54.356;10.100;2022-12-18T09:36:16;102816.56;;;-6.75;99.38
58843;BME280;44614;54.356;10.100;2022-12-18T09:38:43;102852.41;;;-6.58;99.61
58843;BME280;44614;54.356;10.100;2022-12-18T09:43:48;102821.28;;;-6.59;99.78
58843;BME280;44614;54.356;10.100;2022-12-18T09:46:23;102829.31;;;-6.59;99.72
58843;BME280;44614;54.356;10.100;2022-12-18T09:48:52;102852.72;;;-6.44;99.76
58843;BME280;44614;54.356;10.100;2022-12-18T09:51:23;102796.69;;;-6.68;99.48
58843;BME280;44614;54.356;10.100;2022-12-18T09:53:58;102846.31;;;-6.40;99.41
58843;BME280;44614;54.356;10.100;2022-12-18T09:56:28;102832.00;;;-6.39;99.24
58843;BME280;44614;54.356;10.100;2022-12-18T09:59:02;102838.00;;;-6.34;99.65
58843;BME280;44614;54.356;10.100;2022-12-18T10:01:29;102834.28;;;-6.30;99.41
58843;BME280;44614;54.356;10.100;2022-12-18T10:03:55;102825.59;;;-6.35;99.27
58843;BME280;44614;54.356;10.100;2022-12-18T10:06:33;102812.75;;;-6.47;99.67
58843;BME280;44614;54.356;10.100;2022-12-18T10:14:40;102819.63;;;-6.42;99.53
58843;BME280;44614;54.356;10.100;2022-12-18T10:17:13;102863.31;;;-6.21;99.65
58843;BME280;44614;54.356;10.100;2022-12-18T10:19:47;102843.53;;;-6.17;99.55
58843;BME280;44614;54.356;10.100;2022-12-18T10:27:48;102821.72;;;-6.07;99.51
58843;BME280;44614;54.356;10.100;2022-12-18T10:30:18;102834.63;;;-5.97;99.24
58843;BME280;44614;54.356;10.100;2022-12-18T10:32:44;102839.84;;;-5.94;99.34
58843;BME280;44614;54.356;10.100;2022-12-18T10:35:30;102850.31;;;-5.89;99.52
58843;BME280;44614;54.356;10.100;2022-12-18T10:38:07;102857.22;;;-5.83;99.58
58843;BME280;44614;54.356;10.100;2022-12-18T10:40:53;102872.97;;;-5.77;99.63
58843;BME280;44614;54.356;10.100;2022-12-18T10:43:21;102827.53;;;-5.98;99.59
58843;BME280;44614;54.356;10.100;2022-12-18T10:48:31;102857.41;;;-5.68;99.86
58843;BME280;44614;54.356;10.100;2022-12-18T10:50:58;102856.53;;;-5.68;99.49
58843;BME280;44614;54.356;10.100;2022-12-18T10:53:25;102857.41;;;-5.68;99.59
58843;BME280;44614;54.356;10.100;2022-12-18T10:55:53;102851.22;;;-5.70;99.75
58843;BME280;44614;54.356;10.100;2022-12-18T10:58:23;102854.41;;;-5.61;99.49
58843;BME280;44614;54.356;10.100;2022-12-18T11:01:06;102849.88;;;-5.59;99.29
58843;BME280;44614;54.356;10.100;2022-12-18T11:03:34;102850.66;;;-5.57;99.27
58843;BME280;44614;54.356;10.100;2022-12-18T11:06:09;102843.38;;;-5.54;99.55
58843;BME280;44614;54.356;10.100;2022-12-18T11:08:35;102852.22;;;-5.52;98.99
58843;BME280;44614;54.356;10.100;2022-12-18T11:11:01;102847.63;;;-5.50;99.31
58843;BME280;44614;54.356;10.100;2022-12-18T11:13:28;102834.47;;;-5.54;99.27
58843;BME280;44614;54.356;10.100;2022-12-18T11:15:54;102837.97;;;-5.52;99.47
58843;BME280;44614;54.356;10.100;2022-12-18T11:18:32;102852.81;;;-5.45;99.59
58843;BME280;44614;54.356;10.100;2022-12-18T11:21:08;102853.47;;;-5.40;99.41
58843;BME280;44614;54.356;10.100;2022-12-18T11:23:35;102838.16;;;-5.38;99.32
58843;BME280;44614;54.356;10.100;2022-12-18T11:26:04;102831.09;;;-5.39;99.52
58843;BME280;44614;54.356;10.100;2022-12-18T11:28:39;102822.41;;;-5.44;99.20
58843;BME280;44614;54.356;10.100;2022-12-18T11:33:43;102796.03;;;-5.53;99.50
58843;BME280;44614;54.356;10.100;2022-12-18T11:36:10;102821.97;;;-5.35;99.26
58843;BME280;44614;54.356;10.100;2022-12-18T11:38:37;102839.44;;;-5.26;99.29
58843;BME280;44614;54.356;10.100;2022-12-18T11:43:45;102825.00;;;-5.24;99.08
58843;BME280;44614;54.356;10.100;2022-12-18T11:46:32;102832.13;;;-5.23;99.07
58843;BME280;44614;54.356;10.100;2022-12-18T11:49:13;102829.28;;;-5.20;99.21
58843;BME280;44614;54.356;10.100;2022-12-18T11:51:53;102821.19;;;-5.18;98.84
58843;BME280;44614;54.356;10.100;2022-12-18T11:54:18;102824.72;;;-5.18;98.98
58843;BME280;44614;54.356;10.100;2022-12-18T11:56:57;102832.69;;;-5.16;99.04
58843;BME280;44614;54.356;10.100;2022-12-18T12:00:01;102823.66;;;-5.13;99.05
58843;BME280;44614;54.356;10.100;2022-12-18T12:05:44;102812.69;;;-5.09;99.17
58843;BME280;44614;54.356;10.100;2022-12-18T12:08:34;102814.44;;;-5.08;99.24
58843;BME280;44614;54.356;10.100;2022-12-18T12:19:48;102723.31;;;-5.25;98.98
58843;BME280;44614;54.356;10.100;2022-12-18T12:22:32;102788.06;;;-4.98;99.19
58843;BME280;44614;54.356;10.100;2022-12-18T12:36:34;102774.28;;;-4.91;98.62
58843;BME280;44614;54.356;10.100;2022-12-18T12:39:11;102775.06;;;-4.88;98.59
58843;BME280;44614;54.356;10.100;2022-12-18T12:41:40;102750.66;;;-5.00;98.18
58843;BME280;44614;54.356;10.100;2022-12-18T12:44:54;102759.81;;;-4.86;98.38
58843;BME280;44614;54.356;10.100;2022-12-18T12:47:26;102758.78;;;-4.84;98.73
58843;BME280;44614;54.356;10.100;2022-12-18T12:49:54;102747.22;;;-4.84;98.67
58843;BME280;44614;54.356;10.100;2022-12-18T12:52:35;102737.50;;;-4.87;98.27
58843;BME280;44614;54.356;10.100;2022-12-18T12:55:02;102737.97;;;-4.79;98.44
58843;BME280;44614;54.356;10.100;2022-12-18T12:57:38;102724.47;;;-4.77;98.68
58843;BME280;44614;54.356;10.100;2022-12-18T13:00:09;102701.47;;;-4.81;98.61
58843;BME280;44614;54.356;10.100;2022-12-18T13:02:42;102711.63;;;-4.71;98.83
58843;BME280;44614;54.356;10.100;2022-12-18T13:05:16;102705.25;;;-4.68;98.36
58843;BME280;44614;54.356;10.100;2022-12-18T13:07:55;102694.53;;;-4.68;98.63
58843;BME280;44614;54.356;10.100;2022-12-18T13:15:32;102686.41;;;-4.67;97.90
58843;BME280;44614;54.356;10.100;2022-12-18T13:18:11;102688.22;;;-4.67;97.87
58843;BME280;44614;54.356;10.100;2022-12-18T13:20:40;102691.06;;;-4.70;97.92
58843;BME280;44614;54.356;10.100;2022-12-18T13:31:13;102723.78;;;-4.63;97.97
58843;BME280;44614;54.356;10.100;2022-12-18T13:33:40;102718.44;;;-4.63;97.92
58843;BME280;44614;54.356;10.100;2022-12-18T13:36:29;102716.69;;;-4.64;97.82
58843;BME280;44614;54.356;10.100;2022-12-18T13:39:33;102709.69;;;-4.67;97.55
58843;BME280;44614;54.356;10.100;2022-12-18T13:44:37;102708.97;;;-4.71;97.62
58843;BME280;44614;54.356;10.100;2022-12-18T13:49:51;102703.69;;;-4.72;97.73
58843;BME280;44614;54.356;10.100;2022-12-18T13:52:28;102735.00;;;-4.73;97.75
58843;BME280;44614;54.356;10.100;2022-12-18T13:54:56;102706.63;;;-4.77;97.60
58843;BME280;44614;54.356;10.100;2022-12-18T13:57:33;102717.34;;;-4.77;97.69
58843;BME280;44614;54.356;10.100;2022-12-18T14:00:28;102725.53;;;-4.80;97.54
58843;BME280;44614;54.356;10.100;2022-12-18T14:02:54;102727.41;;;-4.82;97.75
58843;BME280;44614;54.356;10.100;2022-12-18T14:07:53;102732.03;;;-4.85;97.52
58843;BME280;44614;54.356;10.100;2022-12-18T14:10:19;102701.84;;;-5.06;97.50
58843;BME280;44614;54.356;10.100;2022-12-18T14:12:47;102725.97;;;-4.89;97.68
58843;BME280;44614;54.356;10.100;2022-12-18T14:17:57;102727.00;;;-4.92;97.38
58843;BME280;44614;54.356;10.100;2022-12-18T14:20:28;102728.13;;;-4.96;97.31
58843;BME280;44614;54.356;10.100;2022-12-18T14:22:55;102690.47;;;-5.11;97.49